EGOS - Shawbury
Distance from station: E 5mi, 14km
Updated: 12/16/2017 3:50pm
Few Clouds
Few Clouds
 Wind from W
Wind: W 8 mph , 13 km/h
Temperature: 34°F , 1°C
Wind Chill: 27°F , -3°C
Dew Point: 32°F , 0°C
Humidity: 93%
Barometer: 30.21 inHg , 1023 hPa
Clouds: Few Clouds
Visibility: 6 miles , 10 km
Cloud details: Few Clouds 2000 ft
2017/12/16 23:50 EGOS 162350Z AUTO 26007KT 9999 FEW020/// 01/00 Q1023